Cocopelli — PB7752 — position and weather

sailwx.info

Track history (hours):
 
Tides and Currents Weather Stations Pressure Air Temp Water Temp Dewpoint Dewpoint Depression Visibility Wind Speed Wind Dir Waves Ship Positions

Cocopelli

Last reported at 2016-Jul-23 10:29 UTC. Time now 2016-Jul-23 11:09 UTC.
Position N 51°53' E 003°47'.

Length 15 m.

Type: Sailing vessel. MMSI: 244730543.

Date/timePositionNaut miles runAvg speedWind from/ knotsBaromVisibWave heightAir tempDewpointWater temp
2016-Jul-23 10:29N 51°53' E 003°47'6 5.9
2016-Jul-23 09:32N 51°57' E 003°53'6 6.1
2016-Jul-23 08:33N 52°01' E 004°01'5 5.2
2016-Jul-23 07:33N 52°04' E 004°08'3 3.1
2016-Jul-23 06:33N 52°05' E 004°12'2 0.2
2016-Jul-22 20:32N 52°06' E 004°16'0 0.0
2016-Jul-22 19:25N 52°06' E 004°16'0 0.0
2016-Jul-22 18:28N 52°06' E 004°16'0 0.0
2016-Jul-22 17:28N 52°06' E 004°16'0 0.0
2016-Jul-22 16:31N 52°06' E 004°16'0 0.0
2016-Jul-22 15:31N 52°06' E 004°16'0 0.0
2016-Jul-22 14:31N 52°06' E 004°16'4 3.7
2016-Jul-22 13:33N 52°09' E 004°18'6 6.1
2016-Jul-22 12:33N 52°15' E 004°23'6 5.9
2016-Jul-22 11:33N 52°20' E 004°26'7 6.4
2016-Jul-22 10:32N 52°26' E 004°31'4 3.4
2016-Jul-22 09:29N 52°28' E 004°36'4 4.7
2016-Jul-22 08:33N 52°26' E 004°42'6 5.7
2016-Jul-22 07:33N 52°25' E 004°51'1 0.4
2016-Jul-22 04:30N 52°24' E 004°53'0 0.0
2016-Jul-22 03:30N 52°24' E 004°53'0 0.0
2016-Jul-22 02:33N 52°24' E 004°53'0 0.0
2016-Jul-22 01:33N 52°24' E 004°53'0 0.0
2016-Jul-22 00:33N 52°24' E 004°53'0 0.0
2016-Jul-21 23:24N 52°24' E 004°53'0 0.0
2016-Jul-21 22:24N 52°24' E 004°53'0 0.0
2016-Jul-21 21:33N 52°24' E 004°53'0 0.0
2016-Jul-21 20:30N 52°24' E 004°53'0 0.0
2016-Jul-21 17:31N 52°24' E 004°53'0 0.0
2016-Jul-21 16:22N 52°24' E 004°53'0 0.0
2016-Jul-21 15:25N 52°24' E 004°53'0 0.0
2016-Jul-21 14:31N 52°24' E 004°53'0 0.0
2016-Jul-21 13:31N 52°24' E 004°53'0 0.0
2016-Jul-21 12:31N 52°24' E 004°53'0 0.0
2016-Jul-19 14:31N 52°24' E 004°53'0 0.0
2016-Jul-19 13:32N 52°24' E 004°53'0 0.0
2016-Jul-19 12:33N 52°24' E 004°53'0 0.0
2016-Jul-18 15:31N 52°24' E 004°53'0 0.0
2016-Jul-18 14:31N 52°24' E 004°53'0 0.0
2016-Jul-18 13:31N 52°24' E 004°53'0 0.0
2016-Jul-18 12:32N 52°24' E 004°53'0 0.0
2016-Jul-18 11:32N 52°24' E 004°53'0 0.0
2016-Jul-18 10:32N 52°24' E 004°53'0 0.0
2016-Jul-16 13:24N 52°24' E 004°53'0 0.0
2016-Jul-16 12:32N 52°24' E 004°53'0 0.0
2016-Jul-16 11:32N 52°24' E 004°53'0 0.0
2016-Jul-16 10:32N 52°24' E 004°53'0 0.0
2016-Jul-14 13:32N 52°24' E 004°53'  
Track history (hours):
 
Tides and Currents Weather Stations Pressure Air Temp Water Temp Dewpoint Dewpoint Depression Visibility Wind Speed Wind Dir Waves Ship Positions

Cocopelli

Last reported at 2016-Jul-23 10:29 UTC. Time now 2016-Jul-23 11:09 UTC.
Position N 51°53' E 003°47'.

Length 15 m.

Type: Sailing vessel. MMSI: 244730543.

Date/timePositionNaut miles runAvg speedWind from/ knotsBaromVisibWave heightAir tempDewpointWater temp
2016-Jul-23 10:29N 51°53' E 003°47'6 5.9
2016-Jul-23 09:32N 51°57' E 003°53'6 6.1
2016-Jul-23 08:33N 52°01' E 004°01'5 5.2
2016-Jul-23 07:33N 52°04' E 004°08'3 3.1
2016-Jul-23 06:33N 52°05' E 004°12'2 0.2
2016-Jul-22 20:32N 52°06' E 004°16'0 0.0
2016-Jul-22 19:25N 52°06' E 004°16'0 0.0
2016-Jul-22 18:28N 52°06' E 004°16'0 0.0
2016-Jul-22 17:28N 52°06' E 004°16'0 0.0
2016-Jul-22 16:31N 52°06' E 004°16'0 0.0
2016-Jul-22 15:31N 52°06' E 004°16'0 0.0
2016-Jul-22 14:31N 52°06' E 004°16'4 3.7
2016-Jul-22 13:33N 52°09' E 004°18'6 6.1
2016-Jul-22 12:33N 52°15' E 004°23'6 5.9
2016-Jul-22 11:33N 52°20' E 004°26'7 6.4
2016-Jul-22 10:32N 52°26' E 004°31'4 3.4
2016-Jul-22 09:29N 52°28' E 004°36'4 4.7
2016-Jul-22 08:33N 52°26' E 004°42'6 5.7
2016-Jul-22 07:33N 52°25' E 004°51'1 0.4
2016-Jul-22 04:30N 52°24' E 004°53'0 0.0
2016-Jul-22 03:30N 52°24' E 004°53'0 0.0
2016-Jul-22 02:33N 52°24' E 004°53'0 0.0
2016-Jul-22 01:33N 52°24' E 004°53'0 0.0
2016-Jul-22 00:33N 52°24' E 004°53'0 0.0
2016-Jul-21 23:24N 52°24' E 004°53'0 0.0
2016-Jul-21 22:24N 52°24' E 004°53'0 0.0
2016-Jul-21 21:33N 52°24' E 004°53'0 0.0
2016-Jul-21 20:30N 52°24' E 004°53'0 0.0
2016-Jul-21 17:31N 52°24' E 004°53'0 0.0
2016-Jul-21 16:22N 52°24' E 004°53'0 0.0
2016-Jul-21 15:25N 52°24' E 004°53'0 0.0
2016-Jul-21 14:31N 52°24' E 004°53'0 0.0
2016-Jul-21 13:31N 52°24' E 004°53'0 0.0
2016-Jul-21 12:31N 52°24' E 004°53'0 0.0
2016-Jul-19 14:31N 52°24' E 004°53'0 0.0
2016-Jul-19 13:32N 52°24' E 004°53'0 0.0
2016-Jul-19 12:33N 52°24' E 004°53'0 0.0
2016-Jul-18 15:31N 52°24' E 004°53'0 0.0
2016-Jul-18 14:31N 52°24' E 004°53'0 0.0
2016-Jul-18 13:31N 52°24' E 004°53'0 0.0
2016-Jul-18 12:32N 52°24' E 004°53'0 0.0
2016-Jul-18 11:32N 52°24' E 004°53'0 0.0
2016-Jul-18 10:32N 52°24' E 004°53'0 0.0
2016-Jul-16 13:24N 52°24' E 004°53'0 0.0
2016-Jul-16 12:32N 52°24' E 004°53'0 0.0
2016-Jul-16 11:32N 52°24' E 004°53'0 0.0
2016-Jul-16 10:32N 52°24' E 004°53'0 0.0
2016-Jul-14 13:32N 52°24' E 004°53'  

Dump ship's entire track history